< < Back
Terminal Aerodrome Forecast


Current Version              Previous Versions:   1  2  3  4  5  6  7  8  9  

Terminal Aerodrome Forecast

640
FTUS42 KFFC 241100
TAFMCN
TAF
KMCN 241120Z 2412/2512 06007KT P6SM SKC
     FM241500 10006KT P6SM SCT050
     FM241700 16005KT P6SM SCT060
     FM250200 21004KT P6SM BKN045=



Latest METAR

509
SAUS80 KWBC 250000
MTRMCN
METAR KMCN 242353Z 20003KT 10SM CLR 24/12 A2991 RMK AO2 SLP127 T02390117
10294 20239 58006


USA.gov is the U.S. government's official web portal to all federal, state and local government web resources and services.